sensor_id;sensor_type;location;lat;lon;timestamp;P1;durP1;ratioP1;P2;durP2;ratioP2
46377;SDS011;32083;47.360;9.650;2022-08-21T04:36:13;2.38;;;1.92;;
46377;SDS011;32083;47.360;9.650;2022-08-21T05:03:45;2.33;;;2.13;;
46377;SDS011;32083;47.360;9.650;2022-08-21T05:06:12;2.50;;;2.00;;
46377;SDS011;32083;47.360;9.650;2022-08-21T05:08:39;2.65;;;2.25;;
46377;SDS011;32083;47.360;9.650;2022-08-21T05:11:06;4.10;;;2.75;;
46377;SDS011;32083;47.360;9.650;2022-08-21T05:13:32;2.90;;;2.28;;
46377;SDS011;32083;47.360;9.650;2022-08-21T05:15:58;3.00;;;2.17;;
46377;SDS011;32083;47.360;9.650;2022-08-21T05:18:24;3.30;;;2.05;;
46377;SDS011;32083;47.360;9.650;2022-08-21T05:20:50;4.60;;;2.22;;
46377;SDS011;32083;47.360;9.650;2022-08-21T05:23:16;2.85;;;1.95;;
46377;SDS011;32083;47.360;9.650;2022-08-21T05:25:42;1.80;;;1.30;;
46377;SDS011;32083;47.360;9.650;2022-08-21T05:28:09;2.30;;;1.98;;
46377;SDS011;32083;47.360;9.650;2022-08-21T05:30:36;5.35;;;2.70;;
46377;SDS011;32083;47.360;9.650;2022-08-21T05:33:03;7.35;;;3.67;;
46377;SDS011;32083;47.360;9.650;2022-08-21T05:35:31;2.67;;;2.47;;
46377;SDS011;32083;47.360;9.650;2022-08-21T05:37:57;2.95;;;2.63;;
46377;SDS011;32083;47.360;9.650;2022-08-21T05:40:25;4.80;;;2.10;;
46377;SDS011;32083;47.360;9.650;2022-08-21T05:42:51;2.22;;;2.03;;
46377;SDS011;32083;47.360;9.650;2022-08-21T05:45:18;2.88;;;2.33;;
46377;SDS011;32083;47.360;9.650;2022-08-21T05:47:44;4.95;;;2.53;;
46377;SDS011;32083;47.360;9.650;2022-08-21T05:50:10;2.35;;;1.92;;
46377;SDS011;32083;47.360;9.650;2022-08-21T05:52:36;3.08;;;2.13;;
46377;SDS011;32083;47.360;9.650;2022-08-21T05:55:02;2.60;;;2.10;;
46377;SDS011;32083;47.360;9.650;2022-08-21T05:57:29;2.85;;;1.88;;
46377;SDS011;32083;47.360;9.650;2022-08-21T05:59:55;2.88;;;1.92;;
46377;SDS011;32083;47.360;9.650;2022-08-21T06:02:21;3.75;;;1.45;;
46377;SDS011;32083;47.360;9.650;2022-08-21T06:04:47;2.30;;;2.00;;
46377;SDS011;32083;47.360;9.650;2022-08-21T06:07:13;1.60;;;1.27;;
46377;SDS011;32083;47.360;9.650;2022-08-21T06:09:39;1.77;;;1.15;;
46377;SDS011;32083;47.360;9.650;2022-08-21T06:12:10;1.85;;;0.95;;
46377;SDS011;32083;47.360;9.650;2022-08-21T06:14:38;1.58;;;1.10;;
46377;SDS011;32083;47.360;9.650;2022-08-21T06:17:05;1.83;;;0.90;;
46377;SDS011;32083;47.360;9.650;2022-08-21T06:19:33;2.70;;;1.20;;
46377;SDS011;32083;47.360;9.650;2022-08-21T06:21:59;1.17;;;0.95;;
46377;SDS011;32083;47.360;9.650;2022-08-21T06:24:26;1.92;;;0.93;;
46377;SDS011;32083;47.360;9.650;2022-08-21T06:26:52;1.20;;;0.98;;
46377;SDS011;32083;47.360;9.650;2022-08-21T06:29:18;1.90;;;0.95;;
46377;SDS011;32083;47.360;9.650;2022-08-21T06:31:45;1.35;;;0.90;;
46377;SDS011;32083;47.360;9.650;2022-08-21T06:34:13;1.20;;;1.00;;
46377;SDS011;32083;47.360;9.650;2022-08-21T06:36:39;3.13;;;1.80;;
46377;SDS011;32083;47.360;9.650;2022-08-21T06:39:05;1.05;;;0.70;;
46377;SDS011;32083;47.360;9.650;2022-08-21T06:41:31;1.10;;;0.60;;
46377;SDS011;32083;47.360;9.650;2022-08-21T06:43:57;0.80;;;0.60;;
46377;SDS011;32083;47.360;9.650;2022-08-21T06:46:24;1.35;;;0.88;;
46377;SDS011;32083;47.360;9.650;2022-08-21T06:48:52;2.50;;;1.08;;
46377;SDS011;32083;47.360;9.650;2022-08-21T06:51:19;1.17;;;0.73;;
46377;SDS011;32083;47.360;9.650;2022-08-21T06:53:44;1.50;;;0.75;;
46377;SDS011;32083;47.360;9.650;2022-08-21T06:56:11;2.25;;;0.93;;
46377;SDS011;32083;47.360;9.650;2022-08-21T06:58:37;2.90;;;0.93;;
46377;SDS011;32083;47.360;9.650;2022-08-21T07:01:03;2.17;;;0.77;;
46377;SDS011;32083;47.360;9.650;2022-08-21T07:03:31;1.02;;;0.93;;
46377;SDS011;32083;47.360;9.650;2022-08-21T07:05:59;2.75;;;0.90;;
46377;SDS011;32083;47.360;9.650;2022-08-21T07:08:25;2.10;;;0.80;;
46377;SDS011;32083;47.360;9.650;2022-08-21T07:10:54;2.30;;;0.82;;
46377;SDS011;32083;47.360;9.650;2022-08-21T07:13:22;2.80;;;0.75;;
46377;SDS011;32083;47.360;9.650;2022-08-21T07:15:48;1.00;;;0.90;;
46377;SDS011;32083;47.360;9.650;2022-08-21T07:18:14;0.88;;;0.80;;
46377;SDS011;32083;47.360;9.650;2022-08-21T07:20:40;1.52;;;0.70;;
46377;SDS011;32083;47.360;9.650;2022-08-21T07:23:08;2.88;;;0.80;;
46377;SDS011;32083;47.360;9.650;2022-08-21T07:25:42;2.30;;;0.90;;
46377;SDS011;32083;47.360;9.650;2022-08-21T07:28:08;1.40;;;0.70;;
46377;SDS011;32083;47.360;9.650;2022-08-21T07:30:34;1.30;;;0.93;;
46377;SDS011;32083;47.360;9.650;2022-08-21T07:33:00;1.80;;;0.85;;
46377;SDS011;32083;47.360;9.650;2022-08-21T07:35:26;2.08;;;0.88;;
46377;SDS011;32083;47.360;9.650;2022-08-21T07:37:53;2.45;;;0.90;;
46377;SDS011;32083;47.360;9.650;2022-08-21T07:40:19;2.40;;;0.73;;
46377;SDS011;32083;47.360;9.650;2022-08-21T07:42:46;0.95;;;0.82;;
46377;SDS011;32083;47.360;9.650;2022-08-21T07:45:15;1.70;;;1.13;;
46377;SDS011;32083;47.360;9.650;2022-08-21T07:47:41;3.22;;;0.80;;
46377;SDS011;32083;47.360;9.650;2022-08-21T07:50:11;2.85;;;0.93;;
46377;SDS011;32083;47.360;9.650;2022-08-21T07:52:38;1.75;;;0.60;;
46377;SDS011;32083;47.360;9.650;2022-08-21T07:55:06;2.60;;;0.80;;
46377;SDS011;32083;47.360;9.650;2022-08-21T07:57:35;2.03;;;0.70;;
46377;SDS011;32083;47.360;9.650;2022-08-21T08:00:02;3.78;;;0.75;;
46377;SDS011;32083;47.360;9.650;2022-08-21T08:02:29;1.42;;;1.23;;
46377;SDS011;32083;47.360;9.650;2022-08-21T08:05:03;3.50;;;1.38;;
46377;SDS011;32083;47.360;9.650;2022-08-21T08:07:31;1.00;;;0.80;;
46377;SDS011;32083;47.360;9.650;2022-08-21T08:09:57;2.25;;;0.95;;
46377;SDS011;32083;47.360;9.650;2022-08-21T08:12:23;0.88;;;0.60;;
46377;SDS011;32083;47.360;9.650;2022-08-21T08:14:56;0.75;;;0.65;;
46377;SDS011;32083;47.360;9.650;2022-08-21T08:17:22;1.08;;;0.77;;
46377;SDS011;32083;47.360;9.650;2022-08-21T08:19:49;1.08;;;0.75;;
46377;SDS011;32083;47.360;9.650;2022-08-21T08:22:15;0.70;;;0.65;;
46377;SDS011;32083;47.360;9.650;2022-08-21T08:24:44;2.88;;;0.80;;
46377;SDS011;32083;47.360;9.650;2022-08-21T08:27:11;1.17;;;0.70;;
46377;SDS011;32083;47.360;9.650;2022-08-21T08:29:37;1.00;;;0.80;;
46377;SDS011;32083;47.360;9.650;2022-08-21T08:32:04;4.43;;;0.80;;
46377;SDS011;32083;47.360;9.650;2022-08-21T08:34:34;1.10;;;0.90;;
46377;SDS011;32083;47.360;9.650;2022-08-21T08:37:01;0.80;;;0.77;;
46377;SDS011;32083;47.360;9.650;2022-08-21T08:39:28;0.93;;;0.65;;
46377;SDS011;32083;47.360;9.650;2022-08-21T08:42:24;2.08;;;1.00;;
46377;SDS011;32083;47.360;9.650;2022-08-21T08:44:47;1.67;;;1.00;;
46377;SDS011;32083;47.360;9.650;2022-08-21T08:47:16;2.85;;;0.80;;
46377;SDS011;32083;47.360;9.650;2022-08-21T08:49:53;0.70;;;0.65;;
46377;SDS011;32083;47.360;9.650;2022-08-21T08:52:30;1.60;;;0.82;;
46377;SDS011;32083;47.360;9.650;2022-08-21T08:57:31;1.30;;;0.85;;
46377;SDS011;32083;47.360;9.650;2022-08-21T09:00:00;2.35;;;0.98;;
46377;SDS011;32083;47.360;9.650;2022-08-21T09:02:30;1.70;;;0.90;;
46377;SDS011;32083;47.360;9.650;2022-08-21T09:04:58;1.05;;;0.85;;
46377;SDS011;32083;47.360;9.650;2022-08-21T09:10:13;1.35;;;1.00;;
46377;SDS011;32083;47.360;9.650;2022-08-21T09:13:03;1.35;;;1.20;;
46377;SDS011;32083;47.360;9.650;2022-08-21T09:24:01;2.65;;;1.05;;
46377;SDS011;32083;47.360;9.650;2022-08-21T09:26:32;1.60;;;1.20;;
46377;SDS011;32083;47.360;9.650;2022-08-21T09:29:10;1.70;;;1.20;;
46377;SDS011;32083;47.360;9.650;2022-08-21T09:31:37;1.95;;;0.75;;
46377;SDS011;32083;47.360;9.650;2022-08-21T09:34:04;1.30;;;1.20;;
46377;SDS011;32083;47.360;9.650;2022-08-21T09:39:07;3.25;;;1.17;;
46377;SDS011;32083;47.360;9.650;2022-08-21T09:41:36;1.60;;;0.70;;
46377;SDS011;32083;47.360;9.650;2022-08-21T09:44:04;1.33;;;0.77;;
46377;SDS011;32083;47.360;9.650;2022-08-21T09:46:31;1.10;;;0.80;;
46377;SDS011;32083;47.360;9.650;2022-08-21T09:48:58;1.85;;;1.10;;
46377;SDS011;32083;47.360;9.650;2022-08-21T09:51:27;1.98;;;0.95;;
46377;SDS011;32083;47.360;9.650;2022-08-21T09:56:34;2.90;;;1.10;;
46377;SDS011;32083;47.360;9.650;2022-08-21T09:59:29;1.42;;;1.00;;
46377;SDS011;32083;47.360;9.650;2022-08-21T10:01:58;1.33;;;1.20;;
46377;SDS011;32083;47.360;9.650;2022-08-21T10:04:31;2.20;;;1.15;;
46377;SDS011;32083;47.360;9.650;2022-08-21T10:07:08;1.33;;;0.93;;
46377;SDS011;32083;47.360;9.650;2022-08-21T10:09:36;1.35;;;1.10;;
46377;SDS011;32083;47.360;9.650;2022-08-21T10:12:21;1.33;;;1.10;;
46377;SDS011;32083;47.360;9.650;2022-08-21T10:14:56;1.77;;;1.23;;
46377;SDS011;32083;47.360;9.650;2022-08-21T10:20:09;2.90;;;1.30;;
46377;SDS011;32083;47.360;9.650;2022-08-21T10:22:50;1.55;;;1.20;;
46377;SDS011;32083;47.360;9.650;2022-08-21T10:26:02;1.55;;;1.10;;
46377;SDS011;32083;47.360;9.650;2022-08-21T10:28:21;1.52;;;1.23;;
46377;SDS011;32083;47.360;9.650;2022-08-21T10:31:03;2.72;;;1.58;;
46377;SDS011;32083;47.360;9.650;2022-08-21T10:36:52;1.92;;;1.10;;
46377;SDS011;32083;47.360;9.650;2022-08-21T10:39:33;1.73;;;1.48;;
46377;SDS011;32083;47.360;9.650;2022-08-21T10:45:06;2.53;;;1.45;;
46377;SDS011;32083;47.360;9.650;2022-08-21T10:47:53;2.75;;;1.92;;
46377;SDS011;32083;47.360;9.650;2022-08-21T10:56:01;2.42;;;1.73;;
46377;SDS011;32083;47.360;9.650;2022-08-21T11:01:38;1.48;;;1.35;;
46377;SDS011;32083;47.360;9.650;2022-08-21T11:06:37;3.20;;;1.58;;
46377;SDS011;32083;47.360;9.650;2022-08-21T11:09:14;3.58;;;1.70;;
46377;SDS011;32083;47.360;9.650;2022-08-21T11:11:48;2.50;;;1.30;;
46377;SDS011;32083;47.360;9.650;2022-08-21T11:14:24;1.60;;;1.02;;
46377;SDS011;32083;47.360;9.650;2022-08-21T11:17:18;1.60;;;1.17;;
46377;SDS011;32083;47.360;9.650;2022-08-21T11:20:05;1.55;;;1.15;;
46377;SDS011;32083;47.360;9.650;2022-08-21T11:22:41;1.83;;;1.30;;
46377;SDS011;32083;47.360;9.650;2022-08-21T11:28:21;1.88;;;1.60;;
46377;SDS011;32083;47.360;9.650;2022-08-21T11:34:23;2.23;;;1.37;;
46377;SDS011;32083;47.360;9.650;2022-08-21T11:39:57;2.65;;;1.30;;
46377;SDS011;32083;47.360;9.650;2022-08-21T11:42:40;1.98;;;1.30;;
46377;SDS011;32083;47.360;9.650;2022-08-21T11:50:43;2.63;;;1.05;;
46377;SDS011;32083;47.360;9.650;2022-08-21T11:53:12;1.33;;;1.13;;
46377;SDS011;32083;47.360;9.650;2022-08-21T11:55:44;1.42;;;0.98;;
46377;SDS011;32083;47.360;9.650;2022-08-21T11:58:20;2.38;;;1.05;;
46377;SDS011;32083;47.360;9.650;2022-08-21T12:00:56;3.90;;;1.27;;
46377;SDS011;32083;47.360;9.650;2022-08-21T12:03:39;1.80;;;1.08;;
46377;SDS011;32083;47.360;9.650;2022-08-21T12:06:09;1.42;;;1.00;;
46377;SDS011;32083;47.360;9.650;2022-08-21T12:13:31;3.65;;;1.60;;
46377;SDS011;32083;47.360;9.650;2022-08-21T12:16:07;2.40;;;1.27;;
46377;SDS011;32083;47.360;9.650;2022-08-21T12:18:35;4.30;;;1.33;;
46377;SDS011;32083;47.360;9.650;2022-08-21T12:26:52;1.52;;;1.10;;
46377;SDS011;32083;47.360;9.650;2022-08-21T12:29:26;1.70;;;1.27;;
46377;SDS011;32083;47.360;9.650;2022-08-21T12:31:56;1.38;;;1.10;;
46377;SDS011;32083;47.360;9.650;2022-08-21T12:34:39;1.33;;;1.10;;
46377;SDS011;32083;47.360;9.650;2022-08-21T12:37:07;1.95;;;1.20;;
46377;SDS011;32083;47.360;9.650;2022-08-21T12:39:43;2.15;;;1.15;;
46377;SDS011;32083;47.360;9.650;2022-08-21T12:44:43;1.92;;;1.25;;
46377;SDS011;32083;47.360;9.650;2022-08-21T12:47:24;2.15;;;0.90;;
46377;SDS011;32083;47.360;9.650;2022-08-21T12:50:08;2.42;;;1.20;;
46377;SDS011;32083;47.360;9.650;2022-08-21T12:52:44;3.05;;;1.20;;
46377;SDS011;32083;47.360;9.650;2022-08-21T12:55:24;1.33;;;0.85;;
46377;SDS011;32083;47.360;9.650;2022-08-21T12:57:57;2.22;;;1.15;;
46377;SDS011;32083;47.360;9.650;2022-08-21T13:00:24;2.38;;;1.05;;
46377;SDS011;32083;47.360;9.650;2022-08-21T13:02:52;1.63;;;1.30;;
46377;SDS011;32083;47.360;9.650;2022-08-21T13:05:31;1.42;;;1.27;;
46377;SDS011;32083;47.360;9.650;2022-08-21T13:08:05;1.45;;;1.25;;
46377;SDS011;32083;47.360;9.650;2022-08-21T13:10:33;2.78;;;1.95;;
46377;SDS011;32083;47.360;9.650;2022-08-21T13:13:02;1.52;;;1.05;;
46377;SDS011;32083;47.360;9.650;2022-08-21T13:15:40;2.20;;;1.23;;
46377;SDS011;32083;47.360;9.650;2022-08-21T13:18:07;2.50;;;0.95;;
46377;SDS011;32083;47.360;9.650;2022-08-21T13:23:02;2.20;;;1.00;;
46377;SDS011;32083;47.360;9.650;2022-08-21T13:25:36;2.17;;;1.17;;
46377;SDS011;32083;47.360;9.650;2022-08-21T13:28:07;1.73;;;1.13;;
46377;SDS011;32083;47.360;9.650;2022-08-21T13:30:40;1.42;;;0.98;;
46377;SDS011;32083;47.360;9.650;2022-08-21T13:33:09;1.58;;;1.33;;
46377;SDS011;32083;47.360;9.650;2022-08-21T13:35:48;2.83;;;1.17;;
46377;SDS011;32083;47.360;9.650;2022-08-21T13:38:21;1.27;;;0.80;;
46377;SDS011;32083;47.360;9.650;2022-08-21T13:40:51;1.83;;;1.63;;
46377;SDS011;32083;47.360;9.650;2022-08-21T13:43:24;1.67;;;0.98;;
46377;SDS011;32083;47.360;9.650;2022-08-21T13:45:53;1.55;;;0.82;;
46377;SDS011;32083;47.360;9.650;2022-08-21T13:48:21;2.20;;;1.13;;
46377;SDS011;32083;47.360;9.650;2022-08-21T13:50:51;2.35;;;1.10;;
46377;SDS011;32083;47.360;9.650;2022-08-21T13:53:27;2.78;;;1.30;;
46377;SDS011;32083;47.360;9.650;2022-08-21T13:55:56;1.98;;;0.90;;
46377;SDS011;32083;47.360;9.650;2022-08-21T13:58:27;1.30;;;0.80;;
46377;SDS011;32083;47.360;9.650;2022-08-21T14:00:57;2.42;;;1.00;;
46377;SDS011;32083;47.360;9.650;2022-08-21T14:03:33;1.15;;;0.88;;
46377;SDS011;32083;47.360;9.650;2022-08-21T14:06:03;1.95;;;0.98;;
46377;SDS011;32083;47.360;9.650;2022-08-21T14:08:37;2.17;;;0.98;;
46377;SDS011;32083;47.360;9.650;2022-08-21T14:11:06;2.25;;;0.98;;
46377;SDS011;32083;47.360;9.650;2022-08-21T14:13:41;1.10;;;0.90;;
46377;SDS011;32083;47.360;9.650;2022-08-21T14:16:20;1.45;;;1.10;;
46377;SDS011;32083;47.360;9.650;2022-08-21T14:21:31;1.52;;;0.95;;
46377;SDS011;32083;47.360;9.650;2022-08-21T14:26:52;0.85;;;0.60;;
46377;SDS011;32083;47.360;9.650;2022-08-21T14:29:21;1.25;;;0.90;;
46377;SDS011;32083;47.360;9.650;2022-08-21T14:31:51;1.92;;;1.17;;
46377;SDS011;32083;47.360;9.650;2022-08-21T14:34:20;1.38;;;1.00;;
46377;SDS011;32083;47.360;9.650;2022-08-21T14:36:50;0.80;;;0.65;;
46377;SDS011;32083;47.360;9.650;2022-08-21T14:39:17;1.38;;;0.80;;
46377;SDS011;32083;47.360;9.650;2022-08-21T14:41:43;0.98;;;0.73;;
46377;SDS011;32083;47.360;9.650;2022-08-21T14:44:13;0.75;;;0.70;;
46377;SDS011;32083;47.360;9.650;2022-08-21T14:46:39;1.50;;;0.98;;
46377;SDS011;32083;47.360;9.650;2022-08-21T14:49:05;0.95;;;0.70;;
46377;SDS011;32083;47.360;9.650;2022-08-21T14:51:31;1.40;;;1.00;;
46377;SDS011;32083;47.360;9.650;2022-08-21T14:53:57;2.58;;;1.27;;
46377;SDS011;32083;47.360;9.650;2022-08-21T14:56:23;2.60;;;1.17;;
46377;SDS011;32083;47.360;9.650;2022-08-21T14:58:51;1.70;;;1.20;;
46377;SDS011;32083;47.360;9.650;2022-08-21T15:01:19;1.52;;;1.00;;
46377;SDS011;32083;47.360;9.650;2022-08-21T15:03:46;0.82;;;0.70;;
46377;SDS011;32083;47.360;9.650;2022-08-21T15:06:14;1.52;;;0.80;;
46377;SDS011;32083;47.360;9.650;2022-08-21T15:08:42;0.98;;;0.70;;
46377;SDS011;32083;47.360;9.650;2022-08-21T15:11:09;1.10;;;0.80;;
46377;SDS011;32083;47.360;9.650;2022-08-21T15:13:39;1.42;;;1.00;;
46377;SDS011;32083;47.360;9.650;2022-08-21T15:16:05;2.08;;;1.10;;
46377;SDS011;32083;47.360;9.650;2022-08-21T15:18:35;1.23;;;0.60;;
46377;SDS011;32083;47.360;9.650;2022-08-21T15:21:01;1.00;;;0.85;;
46377;SDS011;32083;47.360;9.650;2022-08-21T15:23:27;2.85;;;1.40;;
46377;SDS011;32083;47.360;9.650;2022-08-21T15:25:53;1.92;;;1.50;;
46377;SDS011;32083;47.360;9.650;2022-08-21T15:28:22;1.85;;;1.00;;
46377;SDS011;32083;47.360;9.650;2022-08-21T15:30:50;1.65;;;0.85;;
46377;SDS011;32083;47.360;9.650;2022-08-21T15:33:17;0.95;;;0.80;;
46377;SDS011;32083;47.360;9.650;2022-08-21T15:35:43;1.40;;;0.88;;
46377;SDS011;32083;47.360;9.650;2022-08-21T15:38:11;1.35;;;0.70;;
46377;SDS011;32083;47.360;9.650;2022-08-21T15:40:38;1.65;;;0.73;;
46377;SDS011;32083;47.360;9.650;2022-08-21T15:43:06;3.90;;;1.20;;
46377;SDS011;32083;47.360;9.650;2022-08-21T15:45:45;0.98;;;0.80;;
46377;SDS011;32083;47.360;9.650;2022-08-21T15:48:11;1.58;;;0.60;;
46377;SDS011;32083;47.360;9.650;2022-08-21T15:50:37;2.67;;;0.70;;
46377;SDS011;32083;47.360;9.650;2022-08-21T15:53:03;1.20;;;0.60;;
46377;SDS011;32083;47.360;9.650;2022-08-21T15:55:33;1.45;;;0.75;;
46377;SDS011;32083;47.360;9.650;2022-08-21T15:57:59;1.10;;;0.65;;
46377;SDS011;32083;47.360;9.650;2022-08-21T16:00:26;1.08;;;0.80;;
46377;SDS011;32083;47.360;9.650;2022-08-21T16:02:53;1.33;;;1.10;;
46377;SDS011;32083;47.360;9.650;2022-08-21T16:05:21;1.10;;;0.70;;
46377;SDS011;32083;47.360;9.650;2022-08-21T16:07:48;1.13;;;0.80;;
46377;SDS011;32083;47.360;9.650;2022-08-21T16:10:16;1.45;;;0.82;;
46377;SDS011;32083;47.360;9.650;2022-08-21T16:12:49;2.45;;;1.20;;
46377;SDS011;32083;47.360;9.650;2022-08-21T16:15:18;1.85;;;0.70;;
46377;SDS011;32083;47.360;9.650;2022-08-21T16:17:45;1.58;;;1.27;;
46377;SDS011;32083;47.360;9.650;2022-08-21T16:20:17;2.20;;;1.30;;
46377;SDS011;32083;47.360;9.650;2022-08-21T16:22:46;1.00;;;0.60;;
46377;SDS011;32083;47.360;9.650;2022-08-21T16:25:13;3.53;;;1.00;;
46377;SDS011;32083;47.360;9.650;2022-08-21T16:27:40;1.92;;;0.85;;
46377;SDS011;32083;47.360;9.650;2022-08-21T16:30:08;2.67;;;0.75;;
46377;SDS011;32083;47.360;9.650;2022-08-21T16:32:35;1.67;;;0.80;;
46377;SDS011;32083;47.360;9.650;2022-08-21T16:35:02;2.35;;;1.13;;
46377;SDS011;32083;47.360;9.650;2022-08-21T16:37:29;1.00;;;0.80;;
46377;SDS011;32083;47.360;9.650;2022-08-21T16:39:55;2.97;;;0.80;;
46377;SDS011;32083;47.360;9.650;2022-08-21T16:42:22;2.40;;;0.77;;
46377;SDS011;32083;47.360;9.650;2022-08-21T16:44:50;2.28;;;1.27;;
46377;SDS011;32083;47.360;9.650;2022-08-21T16:47:17;1.88;;;1.00;;
46377;SDS011;32083;47.360;9.650;2022-08-21T16:49:43;1.15;;;1.02;;
46377;SDS011;32083;47.360;9.650;2022-08-21T16:52:10;1.27;;;0.70;;
46377;SDS011;32083;47.360;9.650;2022-08-21T16:54:36;1.90;;;1.08;;
46377;SDS011;32083;47.360;9.650;2022-08-21T16:57:02;1.05;;;0.80;;
46377;SDS011;32083;47.360;9.650;2022-08-21T16:59:28;1.55;;;1.00;;
46377;SDS011;32083;47.360;9.650;2022-08-21T17:01:54;1.20;;;0.88;;
46377;SDS011;32083;47.360;9.650;2022-08-21T17:04:21;2.83;;;0.80;;
46377;SDS011;32083;47.360;9.650;2022-08-21T17:06:49;1.55;;;1.10;;
46377;SDS011;32083;47.360;9.650;2022-08-21T17:09:16;2.67;;;1.25;;
46377;SDS011;32083;47.360;9.650;2022-08-21T17:11:44;2.55;;;1.15;;
46377;SDS011;32083;47.360;9.650;2022-08-21T17:14:22;3.85;;;1.35;;
46377;SDS011;32083;47.360;9.650;2022-08-21T17:16:50;0.80;;;0.70;;
46377;SDS011;32083;47.360;9.650;2022-08-21T17:19:18;1.45;;;0.95;;
46377;SDS011;32083;47.360;9.650;2022-08-21T17:21:45;2.42;;;1.05;;
46377;SDS011;32083;47.360;9.650;2022-08-21T17:24:11;2.13;;;1.00;;
46377;SDS011;32083;47.360;9.650;2022-08-21T17:26:39;1.48;;;1.00;;
46377;SDS011;32083;47.360;9.650;2022-08-21T17:29:07;1.38;;;1.00;;
46377;SDS011;32083;47.360;9.650;2022-08-21T17:31:37;1.50;;;1.30;;
46377;SDS011;32083;47.360;9.650;2022-08-21T17:34:05;2.03;;;1.27;;
46377;SDS011;32083;47.360;9.650;2022-08-21T17:36:31;3.50;;;2.28;;
46377;SDS011;32083;47.360;9.650;2022-08-21T17:38:57;2.63;;;1.20;;
46377;SDS011;32083;47.360;9.650;2022-08-21T17:41:23;2.15;;;1.05;;
46377;SDS011;32083;47.360;9.650;2022-08-21T17:43:50;3.67;;;1.67;;
46377;SDS011;32083;47.360;9.650;2022-08-21T17:46:20;3.15;;;1.50;;
46377;SDS011;32083;47.360;9.650;2022-08-21T17:48:51;2.70;;;2.25;;
46377;SDS011;32083;47.360;9.650;2022-08-21T17:51:18;3.63;;;1.63;;
46377;SDS011;32083;47.360;9.650;2022-08-21T17:53:44;4.32;;;2.25;;
46377;SDS011;32083;47.360;9.650;2022-08-21T17:56:11;4.80;;;1.70;;
46377;SDS011;32083;47.360;9.650;2022-08-21T17:58:39;3.20;;;1.33;;
46377;SDS011;32083;47.360;9.650;2022-08-21T18:01:09;5.07;;;1.73;;
46377;SDS011;32083;47.360;9.650;2022-08-21T18:03:36;4.72;;;1.52;;
46377;SDS011;32083;47.360;9.650;2022-08-21T18:06:02;5.85;;;1.52;;
46377;SDS011;32083;47.360;9.650;2022-08-21T18:08:28;3.13;;;1.60;;
46377;SDS011;32083;47.360;9.650;2022-08-21T18:10:56;3.67;;;1.95;;
46377;SDS011;32083;47.360;9.650;2022-08-21T18:13:32;4.93;;;2.17;;
46377;SDS011;32083;47.360;9.650;2022-08-21T18:16:01;3.55;;;2.83;;
46377;SDS011;32083;47.360;9.650;2022-08-21T18:18:29;2.25;;;1.77;;
46377;SDS011;32083;47.360;9.650;2022-08-21T18:21:03;3.35;;;1.92;;
46377;SDS011;32083;47.360;9.650;2022-08-21T18:23:29;3.33;;;1.95;;
46377;SDS011;32083;47.360;9.650;2022-08-21T18:25:55;2.00;;;1.60;;
46377;SDS011;32083;47.360;9.650;2022-08-21T18:28:22;1.80;;;1.55;;
46377;SDS011;32083;47.360;9.650;2022-08-21T18:30:49;2.38;;;1.45;;
46377;SDS011;32083;47.360;9.650;2022-08-21T18:33:16;2.00;;;1.70;;
46377;SDS011;32083;47.360;9.650;2022-08-21T18:35:43;2.28;;;1.80;;
46377;SDS011;32083;47.360;9.650;2022-08-21T18:38:09;2.63;;;1.35;;
46377;SDS011;32083;47.360;9.650;2022-08-21T18:40:36;2.83;;;1.63;;
46377;SDS011;32083;47.360;9.650;2022-08-21T18:43:05;2.42;;;1.63;;
46377;SDS011;32083;47.360;9.650;2022-08-21T18:45:34;2.05;;;1.50;;
46377;SDS011;32083;47.360;9.650;2022-08-21T18:48:01;2.97;;;1.77;;
46377;SDS011;32083;47.360;9.650;2022-08-21T18:50:33;3.13;;;1.60;;
46377;SDS011;32083;47.360;9.650;2022-08-21T18:53:00;1.88;;;1.63;;
46377;SDS011;32083;47.360;9.650;2022-08-21T18:55:26;2.22;;;1.27;;
46377;SDS011;32083;47.360;9.650;2022-08-21T18:57:53;1.23;;;1.05;;
46377;SDS011;32083;47.360;9.650;2022-08-21T19:00:20;2.35;;;2.08;;
46377;SDS011;32083;47.360;9.650;2022-08-21T19:02:50;4.75;;;3.00;;
46377;SDS011;32083;47.360;9.650;2022-08-21T19:05:17;4.03;;;2.38;;
46377;SDS011;32083;47.360;9.650;2022-08-21T19:07:45;3.78;;;2.50;;
46377;SDS011;32083;47.360;9.650;2022-08-21T19:10:11;6.07;;;3.95;;
46377;SDS011;32083;47.360;9.650;2022-08-21T19:12:38;4.65;;;3.50;;
46377;SDS011;32083;47.360;9.650;2022-08-21T19:15:06;5.45;;;4.00;;
46377;SDS011;32083;47.360;9.650;2022-08-21T19:17:33;4.28;;;3.85;;
46377;SDS011;32083;47.360;9.650;2022-08-21T19:20:05;2.67;;;2.45;;
46377;SDS011;32083;47.360;9.650;2022-08-21T19:22:37;3.58;;;2.90;;
46377;SDS011;32083;47.360;9.650;2022-08-21T19:25:04;3.90;;;2.78;;
46377;SDS011;32083;47.360;9.650;2022-08-21T19:27:31;4.55;;;2.55;;
46377;SDS011;32083;47.360;9.650;2022-08-21T19:29:58;3.05;;;1.85;;
46377;SDS011;32083;47.360;9.650;2022-08-21T19:32:24;2.40;;;1.80;;
46377;SDS011;32083;47.360;9.650;2022-08-21T19:34:50;3.65;;;2.05;;
46377;SDS011;32083;47.360;9.650;2022-08-21T19:37:16;3.17;;;1.67;;
46377;SDS011;32083;47.360;9.650;2022-08-21T19:39:44;2.50;;;2.22;;
46377;SDS011;32083;47.360;9.650;2022-08-21T19:42:10;1.95;;;1.63;;
46377;SDS011;32083;47.360;9.650;2022-08-21T19:44:37;2.65;;;1.80;;
46377;SDS011;32083;47.360;9.650;2022-08-21T19:47:05;2.92;;;1.95;;
46377;SDS011;32083;47.360;9.650;2022-08-21T19:52:05;3.88;;;2.20;;
46377;SDS011;32083;47.360;9.650;2022-08-21T19:54:31;4.93;;;2.00;;
46377;SDS011;32083;47.360;9.650;2022-08-21T19:56:58;2.78;;;2.15;;
46377;SDS011;32083;47.360;9.650;2022-08-21T19:59:27;3.28;;;1.75;;
46377;SDS011;32083;47.360;9.650;2022-08-21T20:01:54;2.10;;;1.80;;
46377;SDS011;32083;47.360;9.650;2022-08-21T20:04:20;6.63;;;2.00;;
46377;SDS011;32083;47.360;9.650;2022-08-21T20:06:47;3.67;;;1.90;;
46377;SDS011;32083;47.360;9.650;2022-08-21T20:09:13;2.28;;;2.00;;
46377;SDS011;32083;47.360;9.650;2022-08-21T20:14:14;2.30;;;1.98;;
46377;SDS011;32083;47.360;9.650;2022-08-21T20:16:43;2.17;;;1.80;;
46377;SDS011;32083;47.360;9.650;2022-08-21T20:19:11;3.72;;;2.00;;
46377;SDS011;32083;47.360;9.650;2022-08-21T20:21:37;2.63;;;2.42;;
46377;SDS011;32083;47.360;9.650;2022-08-21T20:24:04;3.58;;;1.92;;
46377;SDS011;32083;47.360;9.650;2022-08-21T20:26:30;2.40;;;2.20;;
46377;SDS011;32083;47.360;9.650;2022-08-21T20:28:56;2.67;;;2.03;;
46377;SDS011;32083;47.360;9.650;2022-08-21T20:31:22;4.03;;;2.15;;
46377;SDS011;32083;47.360;9.650;2022-08-21T20:33:49;2.47;;;1.85;;
46377;SDS011;32083;47.360;9.650;2022-08-21T20:36:16;2.65;;;1.88;;
46377;SDS011;32083;47.360;9.650;2022-08-21T20:38:42;2.53;;;2.17;;
46377;SDS011;32083;47.360;9.650;2022-08-21T20:41:08;1.77;;;1.65;;
46377;SDS011;32083;47.360;9.650;2022-08-21T20:43:35;2.58;;;1.95;;
46377;SDS011;32083;47.360;9.650;2022-08-21T20:46:02;2.85;;;2.05;;
46377;SDS011;32083;47.360;9.650;2022-08-21T20:48:30;1.95;;;1.80;;
46377;SDS011;32083;47.360;9.650;2022-08-21T20:51:04;2.55;;;1.70;;
46377;SDS011;32083;47.360;9.650;2022-08-21T20:53:35;6.13;;;2.72;;
46377;SDS011;32083;47.360;9.650;2022-08-21T20:56:06;4.55;;;2.53;;
46377;SDS011;32083;47.360;9.650;2022-08-21T20:58:39;5.32;;;2.50;;
46377;SDS011;32083;47.360;9.650;2022-08-21T21:01:13;3.40;;;2.53;;
46377;SDS011;32083;47.360;9.650;2022-08-21T21:03:42;2.42;;;2.20;;
46377;SDS011;32083;47.360;9.650;2022-08-21T21:06:18;3.92;;;2.45;;
46377;SDS011;32083;47.360;9.650;2022-08-21T21:08:49;5.55;;;2.30;;
46377;SDS011;32083;47.360;9.650;2022-08-21T21:11:28;4.20;;;2.60;;
46377;SDS011;32083;47.360;9.650;2022-08-21T21:14:42;6.13;;;4.03;;
46377;SDS011;32083;47.360;9.650;2022-08-21T21:16:56;7.55;;;3.65;;
46377;SDS011;32083;47.360;9.650;2022-08-21T21:19:40;4.40;;;2.88;;
46377;SDS011;32083;47.360;9.650;2022-08-21T21:22:20;4.70;;;2.80;;